Terminal Aerodrome Forecast
Issued by NWS Des Moines, IA

Home | Current Version | Previous Version | Text Only | Print | Product List | Glossary On
Versions: 1 2 3 4 5 6 7 8 9 10 11 12 13
000
FTUS43 KDMX 281720
TAFDSM
TAF
KDSM 281720Z 2818/2918 33012G20KT P6SM OVC025
     FM290000 02005KT P6SM BKN030
     FM291200 36006KT P6SM SCT030=

USA.gov is the U.S. government's official web portal to all federal, state and local government web resources and services.